sensor_id;sensor_type;location;lat;lon;timestamp;temperature;humidity
18321;DHT22;54904;54.350;18.664;2023-09-19T00:00:17;22.80;99.90
18321;DHT22;54904;54.350;18.664;2023-09-19T00:02:51;22.80;99.90
18321;DHT22;54904;54.350;18.664;2023-09-19T00:05:18;22.90;99.90
18321;DHT22;54904;54.350;18.664;2023-09-19T00:07:52;22.90;99.90
18321;DHT22;54904;54.350;18.664;2023-09-19T00:10:20;22.80;99.90
18321;DHT22;54904;54.350;18.664;2023-09-19T00:12:52;22.80;99.90
18321;DHT22;54904;54.350;18.664;2023-09-19T00:15:21;22.80;99.90
18321;DHT22;54904;54.350;18.664;2023-09-19T00:17:48;22.80;99.90
18321;DHT22;54904;54.350;18.664;2023-09-19T00:20:18;22.80;99.90
18321;DHT22;54904;54.350;18.664;2023-09-19T00:22:47;22.80;99.90
18321;DHT22;54904;54.350;18.664;2023-09-19T00:25:15;22.70;99.90
18321;DHT22;54904;54.350;18.664;2023-09-19T00:27:42;22.70;99.90
18321;DHT22;54904;54.350;18.664;2023-09-19T00:30:12;22.70;99.90
18321;DHT22;54904;54.350;18.664;2023-09-19T00:32:42;22.70;99.90
18321;DHT22;54904;54.350;18.664;2023-09-19T00:35:19;22.70;99.90
18321;DHT22;54904;54.350;18.664;2023-09-19T00:37:51;22.70;99.90
18321;DHT22;54904;54.350;18.664;2023-09-19T00:40:18;22.70;99.90
18321;DHT22;54904;54.350;18.664;2023-09-19T00:42:48;22.70;99.90
18321;DHT22;54904;54.350;18.664;2023-09-19T00:45:17;22.70;99.90
18321;DHT22;54904;54.350;18.664;2023-09-19T00:47:48;22.70;99.90
18321;DHT22;54904;54.350;18.664;2023-09-19T00:50:18;22.70;99.90
18321;DHT22;54904;54.350;18.664;2023-09-19T00:52:47;22.70;99.90
18321;DHT22;54904;54.350;18.664;2023-09-19T00:55:16;22.70;99.90
18321;DHT22;54904;54.350;18.664;2023-09-19T00:57:46;22.70;99.90
18321;DHT22;54904;54.350;18.664;2023-09-19T01:00:17;22.70;99.90
18321;DHT22;54904;54.350;18.664;2023-09-19T01:02:46;22.70;99.90
18321;DHT22;54904;54.350;18.664;2023-09-19T01:05:13;22.70;99.90
18321;DHT22;54904;54.350;18.664;2023-09-19T01:07:41;22.70;99.90
18321;DHT22;54904;54.350;18.664;2023-09-19T01:10:14;22.70;99.90
18321;DHT22;54904;54.350;18.664;2023-09-19T01:12:50;22.70;99.90
18321;DHT22;54904;54.350;18.664;2023-09-19T01:15:28;22.70;99.90
18321;DHT22;54904;54.350;18.664;2023-09-19T01:18:15;22.70;99.90
18321;DHT22;54904;54.350;18.664;2023-09-19T01:20:50;22.70;99.90
18321;DHT22;54904;54.350;18.664;2023-09-19T01:23:31;22.70;99.90
18321;DHT22;54904;54.350;18.664;2023-09-19T01:26:07;22.70;99.90
18321;DHT22;54904;54.350;18.664;2023-09-19T01:28:52;22.70;99.90
18321;DHT22;54904;54.350;18.664;2023-09-19T01:31:28;22.70;99.90
18321;DHT22;54904;54.350;18.664;2023-09-19T01:34:03;22.60;99.90
18321;DHT22;54904;54.350;18.664;2023-09-19T01:36:32;22.50;99.90
18321;DHT22;54904;54.350;18.664;2023-09-19T01:39:08;22.50;99.90
18321;DHT22;54904;54.350;18.664;2023-09-19T01:44:38;22.50;99.90
18321;DHT22;54904;54.350;18.664;2023-09-19T01:47:16;22.40;99.90
18321;DHT22;54904;54.350;18.664;2023-09-19T01:49:54;22.40;99.90
18321;DHT22;54904;54.350;18.664;2023-09-19T01:52:25;22.40;99.90
18321;DHT22;54904;54.350;18.664;2023-09-19T01:54:59;22.40;99.90
18321;DHT22;54904;54.350;18.664;2023-09-19T01:57:35;22.40;99.90
18321;DHT22;54904;54.350;18.664;2023-09-19T02:00:07;22.40;99.90
18321;DHT22;54904;54.350;18.664;2023-09-19T02:02:44;22.40;99.90
18321;DHT22;54904;54.350;18.664;2023-09-19T02:05:12;22.40;99.90
18321;DHT22;54904;54.350;18.664;2023-09-19T02:07:41;22.40;99.90
18321;DHT22;54904;54.350;18.664;2023-09-19T02:10:08;22.40;99.90
18321;DHT22;54904;54.350;18.664;2023-09-19T02:12:38;22.40;99.90
18321;DHT22;54904;54.350;18.664;2023-09-19T02:15:06;22.30;99.90
18321;DHT22;54904;54.350;18.664;2023-09-19T02:17:33;22.30;99.90
18321;DHT22;54904;54.350;18.664;2023-09-19T02:20:02;22.30;99.90
18321;DHT22;54904;54.350;18.664;2023-09-19T02:22:36;22.30;99.90
18321;DHT22;54904;54.350;18.664;2023-09-19T02:25:06;22.30;99.90
18321;DHT22;54904;54.350;18.664;2023-09-19T02:27:33;22.30;99.90
18321;DHT22;54904;54.350;18.664;2023-09-19T02:30:01;22.30;99.90
18321;DHT22;54904;54.350;18.664;2023-09-19T02:32:29;22.30;99.90
18321;DHT22;54904;54.350;18.664;2023-09-19T02:34:57;22.30;99.90
18321;DHT22;54904;54.350;18.664;2023-09-19T02:40:55;22.20;99.90
18321;DHT22;54904;54.350;18.664;2023-09-19T02:43:23;22.20;99.90
18321;DHT22;54904;54.350;18.664;2023-09-19T02:45:51;22.20;99.90
18321;DHT22;54904;54.350;18.664;2023-09-19T02:48:19;22.20;99.90
18321;DHT22;54904;54.350;18.664;2023-09-19T02:50:46;22.20;99.90
18321;DHT22;54904;54.350;18.664;2023-09-19T02:53:18;22.20;99.90
18321;DHT22;54904;54.350;18.664;2023-09-19T02:55:46;22.20;99.90
18321;DHT22;54904;54.350;18.664;2023-09-19T02:58:16;22.20;99.90
18321;DHT22;54904;54.350;18.664;2023-09-19T03:00:44;22.10;99.90
18321;DHT22;54904;54.350;18.664;2023-09-19T03:03:15;22.10;99.90
18321;DHT22;54904;54.350;18.664;2023-09-19T03:05:45;22.10;99.90
18321;DHT22;54904;54.350;18.664;2023-09-19T03:08:15;22.10;99.90
18321;DHT22;54904;54.350;18.664;2023-09-19T03:10:48;22.10;99.90
18321;DHT22;54904;54.350;18.664;2023-09-19T03:13:17;22.10;99.90
18321;DHT22;54904;54.350;18.664;2023-09-19T03:15:46;22.10;99.90
18321;DHT22;54904;54.350;18.664;2023-09-19T03:18:19;22.10;99.90
18321;DHT22;54904;54.350;18.664;2023-09-19T03:20:53;22.10;99.90
18321;DHT22;54904;54.350;18.664;2023-09-19T03:23:22;22.10;99.90
18321;DHT22;54904;54.350;18.664;2023-09-19T03:25:51;22.10;99.90
18321;DHT22;54904;54.350;18.664;2023-09-19T03:28:20;22.00;99.90
18321;DHT22;54904;54.350;18.664;2023-09-19T03:30:58;22.00;99.90
18321;DHT22;54904;54.350;18.664;2023-09-19T03:33:25;22.00;99.90
18321;DHT22;54904;54.350;18.664;2023-09-19T03:35:56;22.00;99.90
18321;DHT22;54904;54.350;18.664;2023-09-19T03:38:25;22.00;99.90
18321;DHT22;54904;54.350;18.664;2023-09-19T03:40:52;22.00;99.90
18321;DHT22;54904;54.350;18.664;2023-09-19T03:43:21;22.00;99.90
18321;DHT22;54904;54.350;18.664;2023-09-19T03:45:48;22.10;99.90
18321;DHT22;54904;54.350;18.664;2023-09-19T03:48:17;22.10;99.90
18321;DHT22;54904;54.350;18.664;2023-09-19T03:50:46;22.10;99.90
18321;DHT22;54904;54.350;18.664;2023-09-19T03:53:13;22.10;99.90
18321;DHT22;54904;54.350;18.664;2023-09-19T03:55:41;22.20;99.90
18321;DHT22;54904;54.350;18.664;2023-09-19T03:58:08;22.20;99.90
18321;DHT22;54904;54.350;18.664;2023-09-19T04:00:37;22.20;99.90
18321;DHT22;54904;54.350;18.664;2023-09-19T04:03:07;22.10;99.90
18321;DHT22;54904;54.350;18.664;2023-09-19T04:05:34;22.10;99.90
18321;DHT22;54904;54.350;18.664;2023-09-19T04:08:02;22.10;99.90
18321;DHT22;54904;54.350;18.664;2023-09-19T04:10:29;22.10;99.90
18321;DHT22;54904;54.350;18.664;2023-09-19T04:12:56;22.10;99.90
18321;DHT22;54904;54.350;18.664;2023-09-19T04:15:24;22.00;99.90
18321;DHT22;54904;54.350;18.664;2023-09-19T04:17:55;22.00;99.90
18321;DHT22;54904;54.350;18.664;2023-09-19T04:20:22;22.00;99.90
18321;DHT22;54904;54.350;18.664;2023-09-19T04:22:50;22.00;99.90
18321;DHT22;54904;54.350;18.664;2023-09-19T04:25:20;22.00;99.90
18321;DHT22;54904;54.350;18.664;2023-09-19T04:27:47;22.00;99.90
18321;DHT22;54904;54.350;18.664;2023-09-19T04:30:14;22.00;99.90
18321;DHT22;54904;54.350;18.664;2023-09-19T04:32:41;22.00;99.90
18321;DHT22;54904;54.350;18.664;2023-09-19T04:35:10;21.90;99.90
18321;DHT22;54904;54.350;18.664;2023-09-19T04:37:38;21.90;99.90
18321;DHT22;54904;54.350;18.664;2023-09-19T04:40:07;21.90;99.90
18321;DHT22;54904;54.350;18.664;2023-09-19T04:42:40;21.90;99.90
18321;DHT22;54904;54.350;18.664;2023-09-19T04:45:08;21.90;99.90
18321;DHT22;54904;54.350;18.664;2023-09-19T04:47:36;21.90;99.90
18321;DHT22;54904;54.350;18.664;2023-09-19T04:50:07;21.80;99.90
18321;DHT22;54904;54.350;18.664;2023-09-19T04:52:41;21.80;99.90
18321;DHT22;54904;54.350;18.664;2023-09-19T04:55:10;21.80;99.90
18321;DHT22;54904;54.350;18.664;2023-09-19T04:57:43;21.80;99.90
18321;DHT22;54904;54.350;18.664;2023-09-19T05:00:12;21.80;99.90
18321;DHT22;54904;54.350;18.664;2023-09-19T05:02:40;21.80;99.90
18321;DHT22;54904;54.350;18.664;2023-09-19T05:05:08;21.80;99.90
18321;DHT22;54904;54.350;18.664;2023-09-19T05:07:37;21.80;99.90
18321;DHT22;54904;54.350;18.664;2023-09-19T05:10:14;21.80;99.90
18321;DHT22;54904;54.350;18.664;2023-09-19T05:12:44;21.70;99.90
18321;DHT22;54904;54.350;18.664;2023-09-19T05:15:17;21.70;99.90
18321;DHT22;54904;54.350;18.664;2023-09-19T05:17:48;21.70;99.90
18321;DHT22;54904;54.350;18.664;2023-09-19T05:20:17;21.60;99.90
18321;DHT22;54904;54.350;18.664;2023-09-19T05:22:53;21.60;99.90
18321;DHT22;54904;54.350;18.664;2023-09-19T05:25:25;21.70;99.90
18321;DHT22;54904;54.350;18.664;2023-09-19T05:27:58;21.70;99.90
18321;DHT22;54904;54.350;18.664;2023-09-19T05:30:26;21.60;99.90
18321;DHT22;54904;54.350;18.664;2023-09-19T05:32:55;21.60;99.90
18321;DHT22;54904;54.350;18.664;2023-09-19T05:35:23;21.60;99.90
18321;DHT22;54904;54.350;18.664;2023-09-19T05:37:51;21.60;99.90
18321;DHT22;54904;54.350;18.664;2023-09-19T05:40:19;21.50;99.90
18321;DHT22;54904;54.350;18.664;2023-09-19T05:42:48;21.50;99.90
18321;DHT22;54904;54.350;18.664;2023-09-19T05:45:17;21.50;99.90
18321;DHT22;54904;54.350;18.664;2023-09-19T05:47:48;21.50;99.90
18321;DHT22;54904;54.350;18.664;2023-09-19T05:50:16;21.50;99.90
18321;DHT22;54904;54.350;18.664;2023-09-19T05:52:51;21.50;99.90
18321;DHT22;54904;54.350;18.664;2023-09-19T05:55:18;21.50;99.90
18321;DHT22;54904;54.350;18.664;2023-09-19T05:57:51;21.50;99.90
18321;DHT22;54904;54.350;18.664;2023-09-19T06:00:19;21.50;99.90
18321;DHT22;54904;54.350;18.664;2023-09-19T06:02:50;21.50;99.90
18321;DHT22;54904;54.350;18.664;2023-09-19T06:05:18;21.60;99.90
18321;DHT22;54904;54.350;18.664;2023-09-19T06:07:49;21.60;99.90
18321;DHT22;54904;54.350;18.664;2023-09-19T06:10:19;21.60;99.90
18321;DHT22;54904;54.350;18.664;2023-09-19T06:12:49;21.70;99.90
18321;DHT22;54904;54.350;18.664;2023-09-19T06:15:17;21.70;99.90
18321;DHT22;54904;54.350;18.664;2023-09-19T06:17:47;21.60;99.90
18321;DHT22;54904;54.350;18.664;2023-09-19T06:20:15;21.70;99.90
18321;DHT22;54904;54.350;18.664;2023-09-19T06:22:43;21.60;99.90
18321;DHT22;54904;54.350;18.664;2023-09-19T06:25:12;21.60;99.90
18321;DHT22;54904;54.350;18.664;2023-09-19T06:27:45;21.60;99.90
18321;DHT22;54904;54.350;18.664;2023-09-19T06:30:14;21.60;99.90
18321;DHT22;54904;54.350;18.664;2023-09-19T06:32:41;21.60;99.90
18321;DHT22;54904;54.350;18.664;2023-09-19T06:35:09;21.60;99.90
18321;DHT22;54904;54.350;18.664;2023-09-19T06:37:37;21.60;99.90
18321;DHT22;54904;54.350;18.664;2023-09-19T06:40:07;21.60;99.90
18321;DHT22;54904;54.350;18.664;2023-09-19T06:42:40;21.60;99.90
18321;DHT22;54904;54.350;18.664;2023-09-19T06:45:08;21.60;99.90
18321;DHT22;54904;54.350;18.664;2023-09-19T06:47:38;21.60;99.90
18321;DHT22;54904;54.350;18.664;2023-09-19T06:50:06;21.60;99.90
18321;DHT22;54904;54.350;18.664;2023-09-19T06:52:39;21.60;99.90
18321;DHT22;54904;54.350;18.664;2023-09-19T06:55:06;21.70;99.90
18321;DHT22;54904;54.350;18.664;2023-09-19T06:57:35;21.70;99.90
18321;DHT22;54904;54.350;18.664;2023-09-19T07:00:02;21.70;99.90
18321;DHT22;54904;54.350;18.664;2023-09-19T07:02:35;21.70;99.90
18321;DHT22;54904;54.350;18.664;2023-09-19T07:05:04;21.70;99.90
18321;DHT22;54904;54.350;18.664;2023-09-19T07:07:38;21.70;99.90
18321;DHT22;54904;54.350;18.664;2023-09-19T07:10:06;21.80;99.90
18321;DHT22;54904;54.350;18.664;2023-09-19T07:12:35;21.80;99.90
18321;DHT22;54904;54.350;18.664;2023-09-19T07:15:03;21.80;99.90
18321;DHT22;54904;54.350;18.664;2023-09-19T07:17:34;21.80;99.90
18321;DHT22;54904;54.350;18.664;2023-09-19T07:20:02;21.80;99.90
18321;DHT22;54904;54.350;18.664;2023-09-19T07:22:34;21.80;99.90
18321;DHT22;54904;54.350;18.664;2023-09-19T07:25:02;21.80;99.90
18321;DHT22;54904;54.350;18.664;2023-09-19T07:27:29;21.80;99.90
18321;DHT22;54904;54.350;18.664;2023-09-19T07:29:56;21.90;99.90
18321;DHT22;54904;54.350;18.664;2023-09-19T07:32:24;21.90;99.90
18321;DHT22;54904;54.350;18.664;2023-09-19T07:34:51;21.90;99.90
18321;DHT22;54904;54.350;18.664;2023-09-19T07:37:22;22.00;99.90
18321;DHT22;54904;54.350;18.664;2023-09-19T07:39:51;22.00;99.90
18321;DHT22;54904;54.350;18.664;2023-09-19T07:42:18;22.00;99.90
18321;DHT22;54904;54.350;18.664;2023-09-19T07:44:45;22.00;99.90
18321;DHT22;54904;54.350;18.664;2023-09-19T07:47:15;22.10;99.90
18321;DHT22;54904;54.350;18.664;2023-09-19T07:49:42;22.10;99.90
18321;DHT22;54904;54.350;18.664;2023-09-19T07:52:09;22.10;99.90
18321;DHT22;54904;54.350;18.664;2023-09-19T07:54:39;22.10;99.90
18321;DHT22;54904;54.350;18.664;2023-09-19T07:57:07;22.10;99.90
18321;DHT22;54904;54.350;18.664;2023-09-19T07:59:34;22.10;99.90
18321;DHT22;54904;54.350;18.664;2023-09-19T08:02:02;22.00;99.90
18321;DHT22;54904;54.350;18.664;2023-09-19T08:04:34;22.00;99.90
18321;DHT22;54904;54.350;18.664;2023-09-19T08:07:02;22.00;99.90
18321;DHT22;54904;54.350;18.664;2023-09-19T08:09:36;22.00;99.90
18321;DHT22;54904;54.350;18.664;2023-09-19T08:12:06;22.00;99.90
18321;DHT22;54904;54.350;18.664;2023-09-19T08:14:34;21.90;99.90
18321;DHT22;54904;54.350;18.664;2023-09-19T08:17:01;22.00;99.90
18321;DHT22;54904;54.350;18.664;2023-09-19T08:19:28;21.90;99.90
18321;DHT22;54904;54.350;18.664;2023-09-19T08:21:55;21.90;99.90
18321;DHT22;54904;54.350;18.664;2023-09-19T08:24:24;22.00;99.90
18321;DHT22;54904;54.350;18.664;2023-09-19T08:26:53;21.90;99.90
18321;DHT22;54904;54.350;18.664;2023-09-19T08:29:23;22.00;99.90
18321;DHT22;54904;54.350;18.664;2023-09-19T08:31:54;22.10;99.90
18321;DHT22;54904;54.350;18.664;2023-09-19T08:34:22;22.40;99.90
18321;DHT22;54904;54.350;18.664;2023-09-19T08:36:50;22.50;99.90
18321;DHT22;54904;54.350;18.664;2023-09-19T08:39:18;22.60;99.90
18321;DHT22;54904;54.350;18.664;2023-09-19T08:41:45;22.70;99.90
18321;DHT22;54904;54.350;18.664;2023-09-19T08:44:12;22.70;99.90
18321;DHT22;54904;54.350;18.664;2023-09-19T08:46:43;22.70;99.90
18321;DHT22;54904;54.350;18.664;2023-09-19T08:49:19;22.70;99.90
18321;DHT22;54904;54.350;18.664;2023-09-19T08:51:53;22.60;99.90
18321;DHT22;54904;54.350;18.664;2023-09-19T08:54:25;22.60;99.90
18321;DHT22;54904;54.350;18.664;2023-09-19T08:56:54;22.60;99.90
18321;DHT22;54904;54.350;18.664;2023-09-19T08:59:22;22.50;99.90
18321;DHT22;54904;54.350;18.664;2023-09-19T09:01:54;22.50;99.90
18321;DHT22;54904;54.350;18.664;2023-09-19T09:04:22;22.60;99.90
18321;DHT22;54904;54.350;18.664;2023-09-19T09:06:50;22.70;99.90
18321;DHT22;54904;54.350;18.664;2023-09-19T09:09:20;22.70;99.90
18321;DHT22;54904;54.350;18.664;2023-09-19T09:11:48;22.70;99.90
18321;DHT22;54904;54.350;18.664;2023-09-19T09:14:16;22.80;99.90
18321;DHT22;54904;54.350;18.664;2023-09-19T09:16:43;22.90;99.90
18321;DHT22;54904;54.350;18.664;2023-09-19T09:19:12;23.20;99.90
18321;DHT22;54904;54.350;18.664;2023-09-19T09:21:39;23.30;99.90
18321;DHT22;54904;54.350;18.664;2023-09-19T09:24:26;23.60;99.90
18321;DHT22;54904;54.350;18.664;2023-09-19T09:26:54;23.80;99.90
18321;DHT22;54904;54.350;18.664;2023-09-19T09:29:43;24.20;99.90
18321;DHT22;54904;54.350;18.664;2023-09-19T09:32:20;24.50;99.90
18321;DHT22;54904;54.350;18.664;2023-09-19T09:34:51;24.40;99.90
18321;DHT22;54904;54.350;18.664;2023-09-19T09:37:19;24.50;99.90
18321;DHT22;54904;54.350;18.664;2023-09-19T09:39:51;24.60;99.90
18321;DHT22;54904;54.350;18.664;2023-09-19T09:42:32;25.30;99.90
18321;DHT22;54904;54.350;18.664;2023-09-19T09:45:17;25.70;99.90
18321;DHT22;54904;54.350;18.664;2023-09-19T09:47:54;25.50;99.90
18321;DHT22;54904;54.350;18.664;2023-09-19T09:50:30;25.60;99.90
18321;DHT22;54904;54.350;18.664;2023-09-19T09:53:23;26.00;99.90
18321;DHT22;54904;54.350;18.664;2023-09-19T09:56:01;26.80;99.90
18321;DHT22;54904;54.350;18.664;2023-09-19T09:58:31;27.00;99.90
18321;DHT22;54904;54.350;18.664;2023-09-19T10:00:59;26.70;99.90
18321;DHT22;54904;54.350;18.664;2023-09-19T10:03:33;27.50;99.90
18321;DHT22;54904;54.350;18.664;2023-09-19T10:06:07;28.90;98.40
18321;DHT22;54904;54.350;18.664;2023-09-19T10:09:01;29.80;97.00
18321;DHT22;54904;54.350;18.664;2023-09-19T10:11:41;29.90;95.70
18321;DHT22;54904;54.350;18.664;2023-09-19T10:14:11;29.20;95.40
18321;DHT22;54904;54.350;18.664;2023-09-19T10:16:41;28.20;95.80
18321;DHT22;54904;54.350;18.664;2023-09-19T10:19:15;27.30;96.30
18321;DHT22;54904;54.350;18.664;2023-09-19T10:21:45;26.60;97.00
18321;DHT22;54904;54.350;18.664;2023-09-19T10:24:14;26.00;97.60
18321;DHT22;54904;54.350;18.664;2023-09-19T10:26:44;25.60;98.20
18321;DHT22;54904;54.350;18.664;2023-09-19T10:29:13;25.40;98.40
18321;DHT22;54904;54.350;18.664;2023-09-19T10:31:42;25.10;98.50
18321;DHT22;54904;54.350;18.664;2023-09-19T10:34:14;25.20;98.60
18321;DHT22;54904;54.350;18.664;2023-09-19T10:36:45;25.60;98.40
18321;DHT22;54904;54.350;18.664;2023-09-19T10:39:15;26.50;97.80
18321;DHT22;54904;54.350;18.664;2023-09-19T10:41:50;27.60;96.60
18321;DHT22;54904;54.350;18.664;2023-09-19T10:44:25;28.10;95.30
18321;DHT22;54904;54.350;18.664;2023-09-19T10:46:54;27.80;94.10
18321;DHT22;54904;54.350;18.664;2023-09-19T10:49:22;27.10;94.70
18321;DHT22;54904;54.350;18.664;2023-09-19T10:51:54;26.60;95.40
18321;DHT22;54904;54.350;18.664;2023-09-19T10:54:27;26.90;95.50
18321;DHT22;54904;54.350;18.664;2023-09-19T10:56:56;27.90;93.80
18321;DHT22;54904;54.350;18.664;2023-09-19T10:59:25;28.80;92.90
18321;DHT22;54904;54.350;18.664;2023-09-19T11:02:16;29.70;91.00
18321;DHT22;54904;54.350;18.664;2023-09-19T11:04:44;30.00;88.00
18321;DHT22;54904;54.350;18.664;2023-09-19T11:07:15;30.50;85.50
18321;DHT22;54904;54.350;18.664;2023-09-19T11:09:44;30.90;84.30
18321;DHT22;54904;54.350;18.664;2023-09-19T11:12:24;31.10;82.60
18321;DHT22;54904;54.350;18.664;2023-09-19T11:21:52;29.00;84.40
18321;DHT22;54904;54.350;18.664;2023-09-19T11:24:30;28.30;85.00
18321;DHT22;54904;54.350;18.664;2023-09-19T11:27:19;27.60;85.70
18321;DHT22;54904;54.350;18.664;2023-09-19T11:29:46;27.20;87.00
18321;DHT22;54904;54.350;18.664;2023-09-19T11:32:14;27.00;87.60
18321;DHT22;54904;54.350;18.664;2023-09-19T11:34:44;26.90;87.50
18321;DHT22;54904;54.350;18.664;2023-09-19T11:40:46;26.40;86.80
18321;DHT22;54904;54.350;18.664;2023-09-19T11:43:32;26.10;85.60
18321;DHT22;54904;54.350;18.664;2023-09-19T11:46:05;25.90;85.70
18321;DHT22;54904;54.350;18.664;2023-09-19T11:48:33;25.70;86.30
18321;DHT22;54904;54.350;18.664;2023-09-19T11:51:16;25.60;86.40
18321;DHT22;54904;54.350;18.664;2023-09-19T11:53:49;25.50;86.70
18321;DHT22;54904;54.350;18.664;2023-09-19T11:56:19;25.60;87.00
18321;DHT22;54904;54.350;18.664;2023-09-19T11:58:49;25.70;87.40
18321;DHT22;54904;54.350;18.664;2023-09-19T12:01:23;25.70;87.80
18321;DHT22;54904;54.350;18.664;2023-09-19T12:03:53;25.70;88.10
18321;DHT22;54904;54.350;18.664;2023-09-19T12:06:23;25.70;88.40
18321;DHT22;54904;54.350;18.664;2023-09-19T12:08:51;25.70;88.90
18321;DHT22;54904;54.350;18.664;2023-09-19T12:11:22;25.70;89.30
18321;DHT22;54904;54.350;18.664;2023-09-19T12:13:50;25.80;89.30
18321;DHT22;54904;54.350;18.664;2023-09-19T12:16:20;25.80;89.30
18321;DHT22;54904;54.350;18.664;2023-09-19T12:18:51;25.90;89.40
18321;DHT22;54904;54.350;18.664;2023-09-19T12:21:27;26.00;89.50
18321;DHT22;54904;54.350;18.664;2023-09-19T12:24:04;26.10;89.40
18321;DHT22;54904;54.350;18.664;2023-09-19T12:26:39;26.10;88.90
18321;DHT22;54904;54.350;18.664;2023-09-19T12:29:12;26.00;88.50
18321;DHT22;54904;54.350;18.664;2023-09-19T12:31:53;26.00;87.90
18321;DHT22;54904;54.350;18.664;2023-09-19T12:34:24;25.90;87.40
18321;DHT22;54904;54.350;18.664;2023-09-19T12:37:09;25.80;86.80
18321;DHT22;54904;54.350;18.664;2023-09-19T12:39:43;25.70;85.90
18321;DHT22;54904;54.350;18.664;2023-09-19T12:42:16;25.70;85.70
18321;DHT22;54904;54.350;18.664;2023-09-19T12:44:45;25.70;85.90
18321;DHT22;54904;54.350;18.664;2023-09-19T12:47:14;25.80;86.00
18321;DHT22;54904;54.350;18.664;2023-09-19T12:50:11;25.90;86.00
18321;DHT22;54904;54.350;18.664;2023-09-19T12:52:46;26.20;86.00
18321;DHT22;54904;54.350;18.664;2023-09-19T12:55:22;26.60;85.30
18321;DHT22;54904;54.350;18.664;2023-09-19T12:58:08;27.00;84.80
18321;DHT22;54904;54.350;18.664;2023-09-19T13:00:39;27.20;84.10
18321;DHT22;54904;54.350;18.664;2023-09-19T13:03:12;27.30;83.80
18321;DHT22;54904;54.350;18.664;2023-09-19T13:05:51;27.20;84.20
18321;DHT22;54904;54.350;18.664;2023-09-19T13:08:22;26.90;84.60
18321;DHT22;54904;54.350;18.664;2023-09-19T13:11:06;26.60;85.20
18321;DHT22;54904;54.350;18.664;2023-09-19T13:13:38;26.40;85.80
18321;DHT22;54904;54.350;18.664;2023-09-19T13:16:05;26.20;86.20
18321;DHT22;54904;54.350;18.664;2023-09-19T13:18:49;26.10;86.20
18321;DHT22;54904;54.350;18.664;2023-09-19T13:21:27;25.80;86.30
18321;DHT22;54904;54.350;18.664;2023-09-19T13:23:56;25.70;86.80
18321;DHT22;54904;54.350;18.664;2023-09-19T13:26:43;25.60;86.80
18321;DHT22;54904;54.350;18.664;2023-09-19T13:29:12;25.50;87.10
18321;DHT22;54904;54.350;18.664;2023-09-19T13:31:39;25.50;87.20
18321;DHT22;54904;54.350;18.664;2023-09-19T13:34:08;25.50;86.80
18321;DHT22;54904;54.350;18.664;2023-09-19T13:36:36;25.60;86.70
18321;DHT22;54904;54.350;18.664;2023-09-19T13:39:03;25.70;86.50
18321;DHT22;54904;54.350;18.664;2023-09-19T13:41:32;25.70;85.80
18321;DHT22;54904;54.350;18.664;2023-09-19T13:44:02;25.70;85.50
18321;DHT22;54904;54.350;18.664;2023-09-19T13:46:31;25.70;85.00
18321;DHT22;54904;54.350;18.664;2023-09-19T13:49:00;25.70;84.80
18321;DHT22;54904;54.350;18.664;2023-09-19T13:51:30;25.80;84.30
18321;DHT22;54904;54.350;18.664;2023-09-19T13:53:57;25.70;83.60
18321;DHT22;54904;54.350;18.664;2023-09-19T13:56:25;25.70;82.60
18321;DHT22;54904;54.350;18.664;2023-09-19T13:58:53;25.60;80.90
18321;DHT22;54904;54.350;18.664;2023-09-19T14:01:20;25.60;80.30
18321;DHT22;54904;54.350;18.664;2023-09-19T14:03:49;25.50;79.80
18321;DHT22;54904;54.350;18.664;2023-09-19T14:06:17;25.40;79.80
18321;DHT22;54904;54.350;18.664;2023-09-19T14:08:44;25.30;79.90
18321;DHT22;54904;54.350;18.664;2023-09-19T14:11:13;25.30;79.70
18321;DHT22;54904;54.350;18.664;2023-09-19T14:13:43;25.20;80.10
18321;DHT22;54904;54.350;18.664;2023-09-19T14:16:15;25.20;80.40
18321;DHT22;54904;54.350;18.664;2023-09-19T14:18:42;25.10;80.70
18321;DHT22;54904;54.350;18.664;2023-09-19T14:21:12;25.00;80.60
18321;DHT22;54904;54.350;18.664;2023-09-19T14:23:40;24.90;80.80
18321;DHT22;54904;54.350;18.664;2023-09-19T14:26:09;24.80;80.60
18321;DHT22;54904;54.350;18.664;2023-09-19T14:28:36;24.70;80.90
18321;DHT22;54904;54.350;18.664;2023-09-19T14:31:05;24.70;80.90
18321;DHT22;54904;54.350;18.664;2023-09-19T14:33:33;24.60;81.00
18321;DHT22;54904;54.350;18.664;2023-09-19T14:36:03;24.50;81.20
18321;DHT22;54904;54.350;18.664;2023-09-19T14:38:33;24.50;81.50
18321;DHT22;54904;54.350;18.664;2023-09-19T14:41:00;24.50;81.80
18321;DHT22;54904;54.350;18.664;2023-09-19T14:43:27;24.50;82.10
18321;DHT22;54904;54.350;18.664;2023-09-19T14:45:56;24.50;82.40
18321;DHT22;54904;54.350;18.664;2023-09-19T14:48:24;24.50;82.80
18321;DHT22;54904;54.350;18.664;2023-09-19T14:50:51;24.50;83.30
18321;DHT22;54904;54.350;18.664;2023-09-19T14:53:19;24.50;83.80
18321;DHT22;54904;54.350;18.664;2023-09-19T14:55:47;24.50;84.30
18321;DHT22;54904;54.350;18.664;2023-09-19T14:58:17;24.40;84.70
18321;DHT22;54904;54.350;18.664;2023-09-19T15:00:45;24.40;84.90
18321;DHT22;54904;54.350;18.664;2023-09-19T15:03:12;24.30;85.00
18321;DHT22;54904;54.350;18.664;2023-09-19T15:05:40;24.20;85.20
18321;DHT22;54904;54.350;18.664;2023-09-19T15:08:07;24.20;85.50
18321;DHT22;54904;54.350;18.664;2023-09-19T15:10:34;24.20;85.80
18321;DHT22;54904;54.350;18.664;2023-09-19T15:13:03;24.10;85.80
18321;DHT22;54904;54.350;18.664;2023-09-19T15:15:31;24.10;86.00
18321;DHT22;54904;54.350;18.664;2023-09-19T15:17:59;24.10;86.00
18321;DHT22;54904;54.350;18.664;2023-09-19T15:20:26;24.00;85.60
18321;DHT22;54904;54.350;18.664;2023-09-19T15:22:53;24.00;85.40
18321;DHT22;54904;54.350;18.664;2023-09-19T15:25:20;23.90;85.10
18321;DHT22;54904;54.350;18.664;2023-09-19T15:27:47;23.90;85.10
18321;DHT22;54904;54.350;18.664;2023-09-19T15:30:17;23.90;85.10
18321;DHT22;54904;54.350;18.664;2023-09-19T15:32:44;23.80;85.00
18321;DHT22;54904;54.350;18.664;2023-09-19T15:35:11;23.80;84.70
18321;DHT22;54904;54.350;18.664;2023-09-19T15:37:39;23.80;84.60
18321;DHT22;54904;54.350;18.664;2023-09-19T15:40:08;23.80;84.50
18321;DHT22;54904;54.350;18.664;2023-09-19T15:42:38;23.70;84.40
18321;DHT22;54904;54.350;18.664;2023-09-19T15:45:06;23.70;84.40
18321;DHT22;54904;54.350;18.664;2023-09-19T15:47:37;23.70;84.40
18321;DHT22;54904;54.350;18.664;2023-09-19T15:50:05;23.60;84.30
18321;DHT22;54904;54.350;18.664;2023-09-19T15:52:32;23.60;84.30